createdAt,value
2023-04-07T00:01:53.059Z,0.92
2023-04-07T00:04:19.655Z,0.92
2023-04-07T00:06:46.637Z,0.91
2023-04-07T00:09:13.105Z,0.88
2023-04-07T00:11:39.604Z,0.84
2023-04-07T00:14:06.063Z,0.80
2023-04-07T00:16:32.495Z,0.74
2023-04-07T00:18:59.001Z,0.84
2023-04-07T00:21:27.150Z,0.90
2023-04-07T00:23:53.858Z,0.89
2023-04-07T00:26:20.555Z,0.94
2023-04-07T00:28:46.976Z,0.91
2023-04-07T00:31:13.642Z,0.74
2023-04-07T00:33:40.274Z,0.78
2023-04-07T00:36:06.905Z,0.72
2023-04-07T00:38:33.361Z,0.74
2023-04-07T00:41:00.048Z,0.62
2023-04-07T00:43:26.688Z,0.62
2023-04-07T00:45:53.758Z,0.70
2023-04-07T00:48:20.365Z,0.83
2023-04-07T00:50:46.871Z,0.80
2023-04-07T00:53:13.369Z,0.65
2023-04-07T00:55:39.906Z,0.56
2023-04-07T00:58:06.437Z,0.57
2023-04-07T01:00:36.506Z,0.68
2023-04-07T01:03:06.458Z,0.64
2023-04-07T01:05:42.613Z,0.70
2023-04-07T01:08:14.052Z,0.74
2023-04-07T01:10:41.077Z,0.72
2023-04-07T01:13:27.760Z,0.70
2023-04-07T01:15:57.110Z,0.68
2023-04-07T01:18:29.280Z,0.61
2023-04-07T01:20:56.742Z,0.59
2023-04-07T01:23:34.733Z,0.60
2023-04-07T01:26:04.655Z,0.62
2023-04-07T01:28:40.497Z,0.64
2023-04-07T01:31:07.098Z,0.71
2023-04-07T01:33:33.642Z,0.66
2023-04-07T01:36:01.164Z,0.75
2023-04-07T01:38:27.886Z,0.69
2023-04-07T01:40:54.590Z,0.66
2023-04-07T01:43:21.510Z,0.65
2023-04-07T01:45:47.939Z,0.70
2023-04-07T01:48:14.468Z,0.68
2023-04-07T01:50:41.086Z,0.78
2023-04-07T01:53:07.543Z,0.68
2023-04-07T01:55:34.017Z,0.60
2023-04-07T01:58:04.218Z,0.64
2023-04-07T02:00:30.656Z,0.69
2023-04-07T02:02:58.672Z,0.67
2023-04-07T02:05:25.232Z,0.54
2023-04-07T02:07:51.851Z,0.59
2023-04-07T02:10:18.831Z,0.65
2023-04-07T02:12:45.346Z,0.63
2023-04-07T02:15:12.727Z,0.60
2023-04-07T02:17:41.253Z,0.60
2023-04-07T02:20:08.331Z,0.58
2023-04-07T02:22:34.781Z,0.63
2023-04-07T02:25:01.304Z,0.62
2023-04-07T02:27:27.763Z,0.60
2023-04-07T02:29:54.619Z,0.56
2023-04-07T02:32:21.161Z,0.57
2023-04-07T02:34:47.605Z,0.59
2023-04-07T02:37:14.061Z,0.67
2023-04-07T02:39:40.572Z,0.73
2023-04-07T02:42:07.063Z,0.73
2023-04-07T02:44:33.788Z,0.85
2023-04-07T02:47:00.416Z,0.87
2023-04-07T02:49:27.244Z,0.79
2023-04-07T02:51:53.828Z,0.68
2023-04-07T02:54:20.503Z,0.68
2023-04-07T02:56:47.035Z,0.69
2023-04-07T02:59:13.678Z,0.68
2023-04-07T03:01:40.607Z,0.71
2023-04-07T03:04:07.361Z,0.75
2023-04-07T03:06:34.186Z,0.75
2023-04-07T03:09:01.122Z,0.63
2023-04-07T03:11:27.821Z,0.63
2023-04-07T03:13:54.667Z,0.56
2023-04-07T03:16:21.239Z,0.54
2023-04-07T03:18:47.742Z,0.52
2023-04-07T03:21:14.181Z,0.53
2023-04-07T03:23:41.140Z,0.61
2023-04-07T03:26:07.841Z,0.65
2023-04-07T03:28:34.291Z,0.75
2023-04-07T03:31:00.930Z,0.73
2023-04-07T03:33:27.547Z,0.72
2023-04-07T03:35:54.069Z,0.69
2023-04-07T03:38:21.529Z,0.70
2023-04-07T03:40:47.968Z,0.68
2023-04-07T03:43:15.836Z,0.66
2023-04-07T03:45:42.369Z,0.67
2023-04-07T03:48:12.362Z,0.64
2023-04-07T03:50:39.562Z,0.69
2023-04-07T03:53:05.997Z,0.67
2023-04-07T03:55:32.992Z,0.68
2023-04-07T03:57:59.619Z,0.64
2023-04-07T04:00:27.032Z,0.64
2023-04-07T04:02:53.601Z,0.73
2023-04-07T04:05:20.112Z,0.70
2023-04-07T04:07:46.578Z,0.65
2023-04-07T04:10:13.047Z,0.56
2023-04-07T04:12:41.643Z,0.66
2023-04-07T04:15:08.482Z,0.72
2023-04-07T04:17:35.079Z,0.67
2023-04-07T04:20:01.774Z,0.65
2023-04-07T04:22:28.291Z,0.71
2023-04-07T04:24:54.700Z,0.68
2023-04-07T04:27:21.370Z,0.67
2023-04-07T04:29:49.027Z,0.73
2023-04-07T04:32:15.568Z,0.68
2023-04-07T04:34:42.225Z,0.60
2023-04-07T04:37:08.660Z,0.58
2023-04-07T04:39:35.209Z,0.62
2023-04-07T04:42:02.327Z,0.61
2023-04-07T04:44:30.194Z,0.75
2023-04-07T04:46:56.944Z,0.70
2023-04-07T04:49:23.397Z,0.79
2023-04-07T04:51:49.818Z,0.75
2023-04-07T04:54:16.503Z,0.77
2023-04-07T04:56:43.011Z,0.75
2023-04-07T04:59:09.486Z,0.84
2023-04-07T05:01:36.025Z,0.78
2023-04-07T05:04:03.111Z,0.70
2023-04-07T05:06:29.796Z,0.73
2023-04-07T05:08:56.253Z,0.65
2023-04-07T05:11:22.753Z,0.69
2023-04-07T05:13:49.241Z,0.70
2023-04-07T05:16:15.990Z,0.67
2023-04-07T05:18:42.426Z,0.78
2023-04-07T05:21:09.098Z,0.70
2023-04-07T05:23:36.392Z,0.79
2023-04-07T05:26:02.990Z,0.74
2023-04-07T05:28:29.472Z,0.67
2023-04-07T05:30:56.067Z,0.67
2023-04-07T05:33:22.593Z,0.69
2023-04-07T05:35:49.304Z,0.67
2023-04-07T05:38:17.183Z,0.66
2023-04-07T05:40:43.788Z,0.65
2023-04-07T05:43:10.357Z,0.73
2023-04-07T05:45:36.913Z,0.72
2023-04-07T05:48:03.521Z,0.75
2023-04-07T05:50:29.999Z,0.74
2023-04-07T05:52:56.809Z,0.78
2023-04-07T05:55:23.305Z,0.78
2023-04-07T05:57:49.784Z,0.74
2023-04-07T06:00:16.459Z,0.77
2023-04-07T06:02:43.101Z,0.72
2023-04-07T06:05:09.794Z,0.74
2023-04-07T06:07:36.512Z,0.79
2023-04-07T06:10:03.163Z,0.80
2023-04-07T06:12:29.701Z,0.79
2023-04-07T06:14:56.476Z,0.90
2023-04-07T06:17:23.278Z,0.92
2023-04-07T06:19:49.769Z,0.89
2023-04-07T06:22:16.574Z,0.90
2023-04-07T06:24:43.371Z,0.97
2023-04-07T06:27:09.838Z,1.01
2023-04-07T06:29:36.859Z,1.00
2023-04-07T06:32:03.445Z,0.98
2023-04-07T06:34:29.947Z,1.05
2023-04-07T06:36:58.165Z,1.12
2023-04-07T06:39:26.844Z,1.15
2023-04-07T06:41:53.364Z,1.19
2023-04-07T06:44:19.838Z,1.22
2023-04-07T06:46:49.454Z,1.18
2023-04-07T06:49:16.557Z,1.22
2023-04-07T06:51:43.017Z,1.28
2023-04-07T06:54:13.051Z,1.27
2023-04-07T06:56:40.052Z,1.31
2023-04-07T06:59:06.628Z,1.37
2023-04-07T07:01:33.515Z,1.37
2023-04-07T07:04:03.293Z,1.40
2023-04-07T07:06:29.905Z,1.39
2023-04-07T07:08:56.311Z,1.48
2023-04-07T07:11:22.797Z,1.50
2023-04-07T07:13:49.664Z,1.49
2023-04-07T07:16:16.422Z,1.52
2023-04-07T07:18:42.899Z,1.51
2023-04-07T07:21:09.461Z,1.59
2023-04-07T07:23:36.088Z,1.64
2023-04-07T07:26:02.954Z,1.75
2023-04-07T07:28:29.627Z,1.85
2023-04-07T07:30:56.145Z,1.90
2023-04-07T07:33:23.013Z,1.88
2023-04-07T07:35:49.822Z,1.93
2023-04-07T07:38:16.507Z,1.90
2023-04-07T07:40:42.994Z,1.93
2023-04-07T07:43:09.647Z,1.90
2023-04-07T07:45:36.312Z,1.92
2023-04-07T07:48:02.795Z,1.96
2023-04-07T07:50:29.801Z,1.95
2023-04-07T07:52:56.222Z,1.95
2023-04-07T07:55:22.869Z,1.94
2023-04-07T07:57:49.341Z,2.00
2023-04-07T08:00:16.101Z,2.02
2023-04-07T08:02:42.603Z,2.04
2023-04-07T08:05:09.306Z,2.07
2023-04-07T08:07:35.976Z,2.15
2023-04-07T08:10:02.490Z,2.25
2023-04-07T08:12:28.983Z,2.25
2023-04-07T08:14:55.421Z,2.31
2023-04-07T08:17:22.167Z,2.44
2023-04-07T08:19:48.618Z,2.45
2023-04-07T08:22:15.192Z,2.48
2023-04-07T08:24:41.618Z,2.57
2023-04-07T08:27:08.058Z,2.60
2023-04-07T08:29:34.563Z,2.56
2023-04-07T08:32:01.129Z,2.59
2023-04-07T08:34:28.063Z,2.67
2023-04-07T08:36:54.721Z,2.74
2023-04-07T08:39:22.991Z,2.94
2023-04-07T08:41:49.596Z,3.03
2023-04-07T08:44:16.472Z,3.09
2023-04-07T08:46:43.291Z,3.10
2023-04-07T08:49:10.823Z,3.14
